Time;durP1;ratioP1;P1;durP2;ratioP2;P2;SDS_P1;SDS_P2;PMS_P1;PMS_P2;Temp;Humidity;BMP_temperature;BMP_pressure;BME280_temperature;BME280_humidity;BME280_pressure;Samples;Min_cycle;Max_cycle;Signal;HPM_P1;HPM_P2
2022/09/19 00:07:21;;;;;;;1.60;1.20;;;;;;;8.18;82.90;97662.59;434301;1266;97768;-41
2022/09/19 00:17:28;;;;;;;2.20;1.10;;;;;;;8.27;83.23;97655.31;434193;1267;109162;-41
2022/09/19 00:27:35;;;;;;;1.80;1.40;;;;;;;8.30;83.14;97647.63;433945;1265;97910;-42
2022/09/19 00:47:53;;;;;;;3.20;1.50;;;;;;;8.17;83.30;97640.09;434337;1266;107742;-38
2022/09/19 00:58:02;;;;;;;2.70;1.20;;;;;;;8.20;83.34;97636.59;434009;1267;97887;-41
2022/09/19 01:18:33;;;;;;;2.70;1.00;;;;;;;8.27;83.25;97635.14;433859;1266;109372;-39
2022/09/19 01:28:45;;;;;;;1.70;1.50;;;;;;;8.23;83.52;97636.91;434891;1258;96679;-39
2022/09/19 01:38:53;;;;;;;4.20;3.00;;;;;;;8.09;83.69;97634.42;435002;1264;110992;-40
2022/09/19 01:59:13;;;;;;;2.00;1.70;;;;;;;8.15;83.63;97640.63;434937;1264;97875;-40
2022/09/19 02:09:23;;;;;;;3.00;1.40;;;;;;;8.11;83.59;97648.73;434697;1264;108984;-40
2022/09/19 02:19:34;;;;;;;2.40;1.60;;;;;;;8.08;83.65;97654.90;434808;1265;108804;-40
2022/09/19 02:39:58;;;;;;;5.40;4.90;;;;;;;8.00;83.96;97663.59;435330;1265;108676;-41
2022/09/19 02:50:08;;;;;;;4.50;2.30;;;;;;;7.97;84.09;97660.02;434926;1264;108765;-40
2022/09/19 03:00:15;;;;;;;;;;;;;;;7.85;83.86;97654.76;434822;1265;97876;-41
2022/09/19 03:10:23;;;;;;;4.50;2.20;;;;;;;7.82;84.01;97658.64;435308;1265;108744;-41
2022/09/19 03:20:30;;;;;;;7.30;2.20;;;;;;;7.80;84.11;97662.34;435275;1264;97686;-41
2022/09/19 03:30:37;;;;;;;4.60;2.60;;;;;;;7.81;84.14;97677.27;434935;1264;112354;-41
2022/09/19 03:40:43;;;;;;;3.70;1.90;;;;;;;7.89;84.40;97685.88;434800;1264;108975;-40
2022/09/19 03:50:51;;;;;;;6.00;3.00;;;;;;;7.93;84.38;97694.42;434202;1265;97878;-41
2022/09/19 04:00:58;;;;;;;4.60;2.80;;;;;;;7.85;84.55;97696.42;434325;1266;111127;-40
2022/09/19 04:21:13;;;;;;;4.30;2.60;;;;;;;7.83;84.38;97697.72;435119;1265;98153;-39
2022/09/19 04:31:23;;;;;;;3.00;2.60;;;;;;;7.84;84.33;97701.79;434818;1265;111164;-40
2022/09/19 04:41:32;;;;;;;6.40;3.30;;;;;;;7.85;84.44;97714.76;435204;1264;108501;-40
2022/09/19 04:51:38;;;;;;;3.40;3.00;;;;;;;7.94;84.59;97722.61;435091;1264;97868;-39
2022/09/19 05:01:46;;;;;;;8.80;4.20;;;;;;;7.97;84.58;97734.30;435158;1264;108852;-40
2022/09/19 05:11:56;;;;;;;9.50;4.70;;;;;;;7.90;84.50;97735.06;435095;1265;98155;-40
2022/09/19 05:22:04;;;;;;;6.60;5.20;;;;;;;8.04;84.73;97735.90;435105;1264;98011;-40
2022/09/19 05:32:11;;;;;;;5.70;3.60;;;;;;;8.69;84.65;97749.15;434876;1265;109146;-40
2022/09/19 05:42:18;;;;;;;5.90;4.50;;;;;;;8.99;84.57;97751.15;434732;1265;97486;-40
2022/09/19 06:03:00;;;;;;;7.40;5.10;;;;;;;9.19;83.96;97767.31;434868;1265;108925;-40
2022/09/19 06:13:11;;;;;;;7.40;2.90;;;;;;;9.20;83.74;97779.31;434962;1264;97423;-40
2022/09/19 06:23:18;;;;;;;4.90;2.90;;;;;;;9.16;83.65;97795.02;433871;1264;1530816;-40
2022/09/19 06:33:26;;;;;;;4.70;3.10;;;;;;;9.24;83.71;97804.21;434799;1264;108341;-39
2022/09/19 06:43:34;;;;;;;11.00;4.10;;;;;;;9.73;84.24;97814.68;435023;1264;97760;-40
2022/09/19 06:53:41;;;;;;;9.10;4.80;;;;;;;9.66;83.52;97819.33;434979;1263;111775;-40
2022/09/19 07:03:49;;;;;;;4.40;2.40;;;;;;;9.66;83.43;97825.46;435206;1264;107123;-40
2022/09/19 07:13:56;;;;;;;2.30;2.10;;;;;;;9.47;83.08;97836.47;434439;1265;98130;-41
2022/09/19 07:24:05;;;;;;;3.00;2.50;;;;;;;9.54;83.20;97845.89;434183;1264;111122;-41
2022/09/19 07:34:17;;;;;;;7.20;3.40;;;;;;;9.53;83.48;97856.06;434289;1265;108873;-41
2022/09/19 07:44:23;;;;;;;4.30;3.00;;;;;;;9.48;83.34;97875.25;434211;1265;97903;-41
2022/09/19 07:54:31;;;;;;;6.70;2.80;;;;;;;9.42;83.04;97883.33;434129;1264;111201;-41
2022/09/19 08:04:38;;;;;;;3.60;1.90;;;;;;;9.81;83.23;97886.65;434318;1265;109212;-41
2022/09/19 08:14:44;;;;;;;5.50;3.80;;;;;;;10.04;82.88;97893.31;434396;1265;97869;-41
2022/09/19 08:24:52;;;;;;;4.20;2.70;;;;;;;9.96;82.67;97899.67;434333;1263;111246;-41
2022/09/19 08:34:59;;;;;;;8.10;4.40;;;;;;;9.71;82.53;97907.95;434155;1266;108819;-41
2022/09/19 08:45:04;;;;;;;4.40;3.00;;;;;;;9.55;82.62;97914.08;434371;1265;97530;-40
2022/09/19 08:55:17;;;;;;;3.10;1.90;;;;;;;9.62;82.63;97920.48;434060;1265;110583;-40
2022/09/19 09:05:29;;;;;;;4.30;2.40;;;;;;;9.76;82.62;97924.61;434527;1265;108820;-39
2022/09/19 09:15:36;;;;;;;4.50;2.90;;;;;;;9.97;82.70;97928.39;434495;1265;97522;-40
2022/09/19 09:26:05;;;;;;;3.10;2.60;;;;;;;9.90;82.69;97934.04;434821;1265;110423;-40
2022/09/19 09:36:15;;;;;;;3.80;1.80;;;;;;;10.26;82.71;97931.83;434776;1264;108836;-40
2022/09/19 09:46:31;;;;;;;2.20;1.20;;;;;;;10.88;82.71;97935.81;434361;1264;97881;-39
2022/09/19 09:56:43;;;;;;;2.20;2.00;;;;;;;11.65;82.97;97935.30;434342;1265;110976;-39
2022/09/19 10:06:52;;;;;;;4.70;2.70;;;;;;;12.41;82.35;97942.86;434404;1265;109023;-39
2022/09/19 10:16:59;;;;;;;4.70;2.50;;;;;;;12.11;81.37;97943.80;434136;1265;97900;-40
2022/09/19 10:27:11;;;;;;;1.80;1.20;;;;;;;11.96;80.86;97945.52;434315;1264;111097;-38
2022/09/19 10:37:18;;;;;;;1.80;1.00;;;;;;;12.26;80.60;97947.77;434265;1265;107664;-38
2022/09/19 10:47:27;;;;;;;1.00;0.90;;;;;;;12.45;79.49;97952.70;434433;1265;97870;-39
2022/09/19 10:57:40;;;;;;;2.50;1.00;;;;;;;12.40;78.92;97959.09;434648;1264;110043;-39
2022/09/19 11:18:04;;;;;;;1.60;1.40;;;;;;;12.38;78.27;97975.14;434264;1264;98572;-41
2022/09/19 11:28:12;;;;;;;1.60;1.00;;;;;;;12.67;76.89;97968.71;434267;1265;97881;-41
2022/09/19 11:38:33;;;;;;;4.70;1.50;;;;;;;13.17;76.80;97962.30;434329;1265;110999;-41
2022/09/19 11:49:26;;;;;;;2.90;1.40;;;;;;;13.32;76.23;97972.60;434062;1264;108885;-41
2022/09/19 12:00:00;;;;;;;0.70;0.70;;;;;;;12.88;75.21;97970.58;434162;1265;97600;-41
2022/09/19 12:10:15;;;;;;;1.50;1.30;;;;;;;12.55;75.17;97975.97;434133;1265;98301;-43
2022/09/19 12:20:26;;;;;;;3.60;0.90;;;;;;;12.33;74.62;97987.99;434103;1265;110991;-39
2022/09/19 12:30:31;;;;;;;1.80;1.20;;;;;;;12.73;75.13;97977.86;434397;1265;108925;-40
2022/09/19 12:50:50;;;;;;;3.70;1.40;;;;;;;13.05;74.31;97973.10;434319;1265;111137;-40
2022/09/19 13:00:59;;;;;;;4.30;3.10;;;;;;;12.86;74.03;97990.58;434361;1264;108169;-40
2022/09/19 13:11:08;;;;;;;5.70;2.20;;;;;;;12.53;73.70;97996.11;434387;1265;97714;-40
2022/09/19 13:31:59;;;;;;;2.20;1.30;;;;;;;12.09;73.38;98015.66;433875;1265;111037;-41
2022/09/19 13:42:16;;;;;;;3.50;2.10;;;;;;;12.34;73.41;98013.50;434133;1265;108767;-41
2022/09/19 13:52:22;;;;;;;8.60;5.40;;;;;;;12.80;73.50;98016.31;434249;1265;97705;-40
2022/09/19 14:02:34;;;;;;;5.40;4.30;;;;;;;12.72;73.13;98023.11;434350;1265;110492;-41
2022/09/19 14:13:00;;;;;;;3.80;1.70;;;;;;;12.47;72.97;98036.39;434365;1265;108892;-41
2022/09/19 14:23:10;;;;;;;2.60;1.80;;;;;;;12.19;72.97;98045.85;434330;1266;109312;-40
2022/09/19 14:33:56;;;;;;;12.50;7.80;;;;;;;11.82;73.16;98049.20;434372;1264;98578;-38
2022/09/19 14:44:35;;;;;;;10.50;6.30;;;;;;;11.57;73.65;98055.77;434158;1265;109012;-39
2022/09/19 14:54:47;;;;;;;7.80;4.20;;;;;;;11.38;74.35;98054.73;434771;1264;98191;-38
2022/09/19 15:05:03;;;;;;;7.70;5.10;;;;;;;11.25;74.98;98055.80;434616;1267;98271;-40
2022/09/19 15:15:16;;;;;;;17.40;11.60;;;;;;;11.16;75.01;98057.92;434577;1265;111213;-39
2022/09/19 15:25:24;;;;;;;7.20;4.90;;;;;;;11.01;75.36;98060.91;434564;1265;108996;-40
2022/09/19 15:35:34;;;;;;;15.90;12.50;;;;;;;10.95;75.91;98062.02;434475;1265;97878;-39
2022/09/19 15:45:49;;;;;;;9.10;5.60;;;;;;;10.77;76.20;98068.06;434593;1265;111220;-39
2022/09/19 15:56:04;;;;;;;10.30;5.40;;;;;;;10.67;76.58;98069.64;434348;1265;108847;-40
2022/09/19 16:27:04;;;;;;;8.00;4.00;;;;;;;10.38;77.32;98093.95;434638;1265;108772;-39
2022/09/19 16:37:19;;;;;;;5.20;3.60;;;;;;;10.20;77.53;98104.85;434309;1265;97871;-39
2022/09/19 16:47:27;;;;;;;8.40;5.30;;;;;;;9.99;77.70;98117.11;434129;1265;111102;-39
2022/09/19 16:57:35;;;;;;;5.20;3.80;;;;;;;9.85;78.06;98127.32;434210;1265;108984;-40
2022/09/19 17:07:42;;;;;;;5.60;3.50;;;;;;;9.78;78.32;98132.16;434402;1265;97541;-39
2022/09/19 17:17:49;;;;;;;7.50;3.60;;;;;;;9.75;78.84;98140.60;434334;1265;108799;-40
2022/09/19 17:38:03;;;;;;;27.50;13.80;;;;;;;9.81;79.61;98145.94;434240;1265;111515;-41
2022/09/19 17:58:17;;;;;;;13.70;9.70;;;;;;;9.57;79.86;98178.54;434240;1265;97455;-41
2022/09/19 18:08:25;;;;;;;8.90;6.40;;;;;;;9.53;80.08;98188.65;434360;1263;110927;-41
2022/09/19 18:28:38;;;;;;;13.30;7.60;;;;;;;9.55;80.73;98200.25;434318;1265;97750;-39
2022/09/19 18:48:55;;;;;;;16.40;10.30;;;;;;;9.62;81.28;98207.77;434365;1265;97884;-40
2022/09/19 18:59:03;;;;;;;19.10;11.00;;;;;;;9.65;81.46;98211.41;434298;1265;111041;-40
2022/09/19 19:09:10;;;;;;;16.20;11.00;;;;;;;9.61;81.53;98216.89;434112;1265;108777;-40
2022/09/19 19:19:18;;;;;;;17.60;10.60;;;;;;;9.62;81.99;98216.58;434259;1265;97486;-40
2022/09/19 19:29:30;;;;;;;25.00;15.40;;;;;;;9.64;81.95;98215.25;434543;1265;109508;-40
2022/09/19 19:39:37;;;;;;;27.90;16.30;;;;;;;9.66;82.02;98215.77;434228;1265;98009;-41
2022/09/19 19:49:45;;;;;;;20.60;11.50;;;;;;;9.62;82.28;98220.92;434301;1265;111064;-40
2022/09/19 19:59:52;;;;;;;13.80;8.30;;;;;;;9.67;82.58;98217.10;434442;1265;108842;-41
2022/09/19 20:09:59;;;;;;;8.40;6.60;;;;;;;9.66;82.51;98216.08;434372;1265;97907;-41
2022/09/19 20:20:08;;;;;;;8.30;7.40;;;;;;;9.59;82.78;98216.38;434346;1264;108285;-40
2022/09/19 20:30:13;;;;;;;8.40;7.00;;;;;;;9.57;82.84;98216.48;434477;1264;97974;-41
2022/09/19 20:40:21;;;;;;;8.80;6.60;;;;;;;9.54;82.88;98212.05;434481;1265;111609;-41
2022/09/19 20:50:28;;;;;;;10.90;7.80;;;;;;;9.55;83.09;98212.60;434154;1265;108775;-41
2022/09/19 21:00:36;;;;;;;8.70;6.80;;;;;;;9.58;83.30;98219.24;434411;1265;97882;-41
2022/09/19 21:10:44;;;;;;;11.30;7.20;;;;;;;9.57;83.58;98221.13;434779;1264;109506;-40
2022/09/19 21:20:59;;;;;;;9.50;6.70;;;;;;;9.60;83.66;98228.00;434488;1265;97556;-41
2022/09/19 21:31:08;;;;;;;8.20;6.60;;;;;;;9.65;83.81;98234.12;434291;1265;111266;-41
2022/09/19 21:41:13;;;;;;;15.80;9.20;;;;;;;9.64;83.89;98236.65;434244;1265;108840;-40
2022/09/19 21:51:22;;;;;;;9.30;6.10;;;;;;;9.62;83.93;98238.77;434144;1265;97952;-41
2022/09/19 22:01:29;;;;;;;7.10;5.00;;;;;;;9.57;83.89;98243.51;434182;1265;108792;-40
2022/09/19 22:11:37;;;;;;;6.10;4.30;;;;;;;9.46;83.92;98249.84;434038;1265;98006;-40
2022/09/19 22:21:45;;;;;;;4.70;3.70;;;;;;;9.35;83.91;98249.02;434342;1265;111363;-40
2022/09/19 22:31:52;;;;;;;5.00;4.00;;;;;;;9.26;84.06;98250.56;434509;1265;107788;-40
2022/09/19 22:42:00;;;;;;;5.70;4.40;;;;;;;9.14;84.12;98258.63;434140;1265;97882;-40
2022/09/19 22:52:07;;;;;;;7.30;5.40;;;;;;;8.95;84.13;98259.86;434259;1266;111184;-41
2022/09/19 23:02:15;;;;;;;5.90;4.50;;;;;;;8.87;84.22;98269.64;434053;1267;108959;-41
2022/09/19 23:12:22;;;;;;;6.40;4.90;;;;;;;8.92;84.45;98274.93;434309;1267;97971;-40
2022/09/19 23:22:29;;;;;;;4.80;3.90;;;;;;;9.00;84.46;98282.29;434509;1264;111187;-41
2022/09/19 23:32:38;;;;;;;8.20;4.80;;;;;;;9.12;84.75;98299.30;434304;1265;108860;-40
2022/09/19 23:42:45;;;;;;;7.20;4.40;;;;;;;9.15;84.83;98303.02;434104;1267;97877;-40
2022/09/19 23:52:52;;;;;;;7.70;4.60;;;;;;;9.24;84.89;98307.55;434276;1265;108115;-40
